createdAt,value
2023-05-05T00:01:08.721Z,101050.03
2023-05-05T00:03:35.785Z,101041.59
2023-05-05T00:06:03.339Z,101047.81
2023-05-05T00:08:30.052Z,101034.81
2023-05-05T00:10:57.596Z,101043.34
2023-05-05T00:13:24.659Z,101043.13
2023-05-05T00:15:52.533Z,101046.25
2023-05-05T00:18:19.730Z,101051.88
2023-05-05T00:20:47.308Z,101046.06
2023-05-05T00:23:14.708Z,101049.88
2023-05-05T00:25:41.447Z,101049.00
2023-05-05T00:28:08.163Z,101044.19
2023-05-05T00:30:34.814Z,101046.31
2023-05-05T00:33:01.868Z,101041.97
2023-05-05T00:35:28.517Z,101037.03
2023-05-05T00:37:55.275Z,101050.28
2023-05-05T00:40:22.029Z,101045.28
2023-05-05T00:42:52.530Z,101060.59
2023-05-05T00:45:20.159Z,101064.03
2023-05-05T00:47:49.868Z,101067.66
2023-05-05T00:50:23.688Z,101069.69
2023-05-05T00:52:52.589Z,101066.31
2023-05-05T00:55:19.961Z,101068.47
2023-05-05T00:57:47.667Z,101063.22
2023-05-05T01:00:14.537Z,101055.53
2023-05-05T01:02:41.441Z,101058.91
2023-05-05T01:05:10.094Z,101064.06
2023-05-05T01:07:58.786Z,101060.25
2023-05-05T01:10:48.748Z,101062.13
2023-05-05T01:13:27.886Z,101069.81
2023-05-05T01:15:54.410Z,101061.94
2023-05-05T01:18:27.676Z,101065.41
2023-05-05T01:21:16.889Z,101071.28
2023-05-05T01:24:05.009Z,101083.41
2023-05-05T01:26:49.780Z,101081.22
2023-05-05T01:29:55.538Z,101075.13
2023-05-05T01:32:32.092Z,101084.41
2023-05-05T01:35:02.744Z,101084.22
2023-05-05T01:37:38.174Z,101099.75
2023-05-05T01:40:08.229Z,101094.94
2023-05-05T01:42:38.029Z,101104.13
2023-05-05T01:45:08.202Z,101104.97
2023-05-05T01:47:37.922Z,101104.75
2023-05-05T01:50:08.259Z,101107.88
2023-05-05T01:52:36.195Z,101099.69
2023-05-05T01:55:04.413Z,101098.84
2023-05-05T01:57:31.954Z,101097.91
2023-05-05T01:59:59.524Z,101106.09
2023-05-05T02:02:28.348Z,101105.03
2023-05-05T02:04:57.353Z,101094.25
2023-05-05T02:07:24.321Z,101074.91
2023-05-05T02:09:52.838Z,101078.22
2023-05-05T02:12:20.587Z,101087.31
2023-05-05T02:14:47.888Z,101079.81
2023-05-05T02:17:16.058Z,101078.69
2023-05-05T02:19:45.896Z,101089.28
2023-05-05T02:22:12.400Z,101102.03
2023-05-05T02:24:38.952Z,101096.97
2023-05-05T02:27:08.037Z,101105.13
2023-05-05T02:29:50.343Z,101109.47
2023-05-05T02:32:22.710Z,101111.97
2023-05-05T02:34:51.462Z,101109.91
2023-05-05T02:37:23.079Z,101106.75
2023-05-05T02:39:58.884Z,101097.53
2023-05-05T02:42:30.028Z,101098.00
2023-05-05T02:44:59.852Z,101092.38
2023-05-05T02:47:38.155Z,101099.41
2023-05-05T02:50:05.937Z,101099.78
2023-05-05T02:52:33.387Z,101090.22
2023-05-05T02:55:00.800Z,101100.16
2023-05-05T02:57:52.290Z,101099.25
2023-05-05T03:00:28.120Z,101098.81
2023-05-05T03:03:16.364Z,101099.25
2023-05-05T03:05:51.467Z,101102.09
2023-05-05T03:08:26.853Z,101102.88
2023-05-05T03:11:00.696Z,101098.66
2023-05-05T03:13:29.134Z,101109.59
2023-05-05T03:15:58.480Z,101118.53
2023-05-05T03:18:27.193Z,101120.78
2023-05-05T03:20:54.094Z,101131.41
2023-05-05T03:23:20.920Z,101125.19
2023-05-05T03:25:49.295Z,101122.75
2023-05-05T03:28:16.418Z,101118.00
2023-05-05T03:30:43.248Z,101126.38
2023-05-05T03:33:12.547Z,101125.66
2023-05-05T03:35:39.000Z,101118.00
2023-05-05T03:38:05.642Z,101116.88
2023-05-05T03:40:42.968Z,101120.63
2023-05-05T03:43:10.690Z,101129.19
2023-05-05T03:45:37.144Z,101132.28
2023-05-05T03:48:03.852Z,101141.09
2023-05-05T03:50:30.366Z,101144.81
2023-05-05T03:52:56.771Z,101150.78
2023-05-05T03:55:23.203Z,101157.06
2023-05-05T03:57:49.631Z,101162.38
2023-05-05T04:00:16.413Z,101162.00
2023-05-05T04:02:43.604Z,101167.25
2023-05-05T04:05:10.286Z,101170.66
2023-05-05T04:07:36.777Z,101171.81
2023-05-05T04:10:03.354Z,101175.09
2023-05-05T04:12:29.883Z,101177.09
2023-05-05T04:14:56.400Z,101184.25
2023-05-05T04:17:22.853Z,101180.31
2023-05-05T04:19:49.385Z,101189.84
2023-05-05T04:22:15.805Z,101192.09
2023-05-05T04:24:42.240Z,101191.41
2023-05-05T04:27:08.724Z,101189.38
2023-05-05T04:29:35.245Z,101193.75
2023-05-05T04:32:01.687Z,101196.56
2023-05-05T04:34:28.145Z,101196.88
2023-05-05T04:36:54.581Z,101193.06
2023-05-05T04:39:21.664Z,101201.41
2023-05-05T04:41:48.050Z,101210.56
2023-05-05T04:44:14.468Z,101213.28
2023-05-05T04:46:41.476Z,101212.94
2023-05-05T04:49:09.171Z,101209.53
2023-05-05T04:51:35.650Z,101217.16
2023-05-05T04:54:02.109Z,101211.06
2023-05-05T04:56:31.356Z,101215.94
2023-05-05T04:58:57.788Z,101209.19
2023-05-05T05:01:24.286Z,101219.03
2023-05-05T05:03:51.159Z,101216.66
2023-05-05T05:06:17.595Z,101220.38
2023-05-05T05:08:44.019Z,101227.69
2023-05-05T05:11:10.544Z,101222.00
2023-05-05T05:13:37.012Z,101234.09
2023-05-05T05:16:03.650Z,101225.63
2023-05-05T05:18:30.227Z,101230.34
2023-05-05T05:20:56.689Z,101235.78
2023-05-05T05:23:23.240Z,101226.59
2023-05-05T05:25:49.862Z,101235.09
2023-05-05T05:28:16.324Z,101229.84
2023-05-05T05:30:42.805Z,101234.56
2023-05-05T05:33:09.416Z,101242.03
2023-05-05T05:35:36.066Z,101239.53
2023-05-05T05:38:02.537Z,101244.78
2023-05-05T05:40:28.942Z,101249.72
2023-05-05T05:42:55.502Z,101242.91
2023-05-05T05:45:21.984Z,101237.81
2023-05-05T05:47:49.128Z,101235.41
2023-05-05T05:50:15.770Z,101238.28
2023-05-05T05:52:42.228Z,101231.13
2023-05-05T05:55:09.290Z,101235.34
2023-05-05T05:57:35.933Z,101238.56
2023-05-05T06:00:02.543Z,101243.66
2023-05-05T06:02:29.237Z,101242.63
2023-05-05T06:04:55.755Z,101255.25
2023-05-05T06:07:22.271Z,101251.22
2023-05-05T06:09:48.712Z,101247.78
2023-05-05T06:12:15.294Z,101246.03
2023-05-05T06:14:41.836Z,101251.47
2023-05-05T06:17:08.313Z,101265.63
2023-05-05T06:19:35.196Z,101258.78
2023-05-05T06:22:01.627Z,101263.91
2023-05-05T06:24:28.048Z,101259.31
2023-05-05T06:26:54.508Z,101259.00
2023-05-05T06:29:22.314Z,101257.41
2023-05-05T06:31:48.792Z,101253.69
2023-05-05T06:34:15.360Z,101264.06
2023-05-05T06:36:41.916Z,101261.22
2023-05-05T06:39:08.489Z,101262.84
2023-05-05T06:41:34.936Z,101261.44
2023-05-05T06:44:01.864Z,101259.63
2023-05-05T06:46:28.498Z,101259.69
2023-05-05T06:48:55.064Z,101254.84
2023-05-05T06:51:22.703Z,101259.91
2023-05-05T06:53:49.267Z,101255.44
2023-05-05T06:56:15.869Z,101260.47
2023-05-05T06:58:42.562Z,101262.84
2023-05-05T07:01:09.643Z,101267.19
2023-05-05T07:03:36.175Z,101265.22
2023-05-05T07:06:03.657Z,101273.44
2023-05-05T07:08:30.097Z,101280.75
2023-05-05T07:10:57.752Z,101272.41
2023-05-05T07:13:24.186Z,101275.31
2023-05-05T07:15:50.781Z,101272.16
2023-05-05T07:18:17.289Z,101273.88
2023-05-05T07:20:44.633Z,101270.50
2023-05-05T07:23:11.337Z,101280.19
2023-05-05T07:25:38.185Z,101276.63
2023-05-05T07:28:05.029Z,101272.63
2023-05-05T07:30:31.543Z,101280.66
2023-05-05T07:32:58.327Z,101278.03
2023-05-05T07:35:24.829Z,101278.25
2023-05-05T07:37:51.487Z,101284.38
2023-05-05T07:40:17.898Z,101281.69
2023-05-05T07:42:44.469Z,101275.25
2023-05-05T07:45:11.146Z,101286.69
2023-05-05T07:47:37.768Z,101282.28
2023-05-05T07:50:05.048Z,101278.97
2023-05-05T07:52:44.993Z,101272.19
2023-05-05T07:55:14.715Z,101274.72
2023-05-05T07:57:41.500Z,101270.41
2023-05-05T08:00:09.438Z,101277.03
2023-05-05T08:02:36.301Z,101274.00
2023-05-05T08:05:02.740Z,101274.56
2023-05-05T08:07:29.282Z,101270.22
2023-05-05T08:09:55.808Z,101274.38
2023-05-05T08:12:22.273Z,101270.25
2023-05-05T08:14:48.737Z,101268.66
2023-05-05T08:17:15.179Z,101270.72
2023-05-05T08:19:42.651Z,101276.38
2023-05-05T08:22:09.085Z,101282.69
2023-05-05T08:24:35.764Z,101282.53
2023-05-05T08:27:02.631Z,101278.19
2023-05-05T08:29:29.030Z,101281.19
2023-05-05T08:31:55.627Z,101286.22
2023-05-05T08:34:22.120Z,101285.41
2023-05-05T08:36:50.366Z,101286.44
2023-05-05T08:39:17.229Z,101285.59
2023-05-05T08:41:44.044Z,101291.91
2023-05-05T08:44:10.979Z,101293.81
2023-05-05T08:46:39.144Z,101294.81
2023-05-05T08:49:07.408Z,101291.00
2023-05-05T08:51:42.065Z,101285.78
2023-05-05T08:54:14.504Z,101286.94
2023-05-05T08:56:41.885Z,101290.63
2023-05-05T08:59:11.351Z,101294.50
2023-05-05T09:01:38.246Z,101301.06
2023-05-05T09:04:04.871Z,101293.38
2023-05-05T09:06:33.875Z,101288.97
2023-05-05T09:09:01.394Z,101293.72
2023-05-05T09:11:28.225Z,101289.88
2023-05-05T09:13:55.763Z,101288.09
2023-05-05T09:16:22.575Z,101294.63
2023-05-05T09:18:49.159Z,101287.28
2023-05-05T09:21:22.421Z,101289.91
2023-05-05T09:24:10.071Z,101303.44
2023-05-05T09:26:38.913Z,101300.66
2023-05-05T09:29:06.065Z,101301.88
2023-05-05T09:31:34.036Z,101297.66
2023-05-05T09:34:01.289Z,101302.09
2023-05-05T09:36:44.810Z,101307.16
2023-05-05T09:39:11.273Z,101299.44
2023-05-05T09:41:39.572Z,101300.28
2023-05-05T09:44:06.304Z,101296.41
2023-05-05T09:46:33.252Z,101311.44
2023-05-05T09:49:23.613Z,101308.88
2023-05-05T09:51:50.144Z,101303.19
2023-05-05T09:54:22.483Z,101303.78
2023-05-05T09:56:49.025Z,101298.69
2023-05-05T09:59:15.516Z,101303.34
2023-05-05T10:01:43.783Z,101296.88
2023-05-05T10:04:23.068Z,101286.53
2023-05-05T10:06:49.659Z,101292.88
2023-05-05T10:09:16.379Z,101282.09
2023-05-05T10:11:46.085Z,101284.25
2023-05-05T10:14:17.872Z,101279.81
2023-05-05T10:16:55.157Z,101278.97
2023-05-05T10:19:24.206Z,101270.47
2023-05-05T10:21:52.329Z,101270.69
2023-05-05T10:24:35.412Z,101270.91
2023-05-05T10:27:07.376Z,101274.94
2023-05-05T10:29:39.143Z,101270.72
2023-05-05T10:32:47.455Z,101274.09
2023-05-05T10:35:07.637Z,101266.97
2023-05-05T10:37:37.432Z,101259.13
2023-05-05T10:40:04.638Z,101258.25
2023-05-05T10:42:32.189Z,101267.13
2023-05-05T10:44:58.654Z,101264.22
2023-05-05T10:47:27.911Z,101270.31
2023-05-05T10:50:00.487Z,101265.47
2023-05-05T10:52:55.861Z,101276.22
2023-05-05T10:55:35.522Z,101274.50
2023-05-05T10:58:01.979Z,101280.13
2023-05-05T11:00:40.397Z,101279.94
2023-05-05T11:03:19.412Z,101277.38
2023-05-05T11:06:04.341Z,101286.44
2023-05-05T11:08:32.646Z,101296.69
2023-05-05T11:11:00.041Z,101315.84
2023-05-05T11:13:26.664Z,101356.38
2023-05-05T11:15:57.451Z,101367.34
2023-05-05T11:18:43.262Z,101382.38
2023-05-05T11:21:17.495Z,101397.88
2023-05-05T11:23:46.511Z,101399.09
2023-05-05T11:26:14.141Z,101404.31
2023-05-05T11:29:10.282Z,101370.41
2023-05-05T11:31:36.801Z,101366.81
2023-05-05T11:34:26.863Z,101360.38
2023-05-05T11:36:57.344Z,101358.44
2023-05-05T11:39:34.278Z,101357.28
2023-05-05T11:42:25.905Z,101349.34
2023-05-05T11:44:53.565Z,101344.19
2023-05-05T11:47:19.980Z,101349.19
2023-05-05T11:49:46.505Z,101356.72
2023-05-05T11:52:14.265Z,101362.47
2023-05-05T11:54:42.088Z,101372.28
2023-05-05T11:57:09.056Z,101365.47
2023-05-05T11:59:49.620Z,101372.56
2023-05-05T12:02:17.205Z,101379.50
2023-05-05T12:04:43.748Z,101379.44
2023-05-05T12:07:21.624Z,101382.22
2023-05-05T12:09:49.709Z,101390.41
2023-05-05T12:12:17.031Z,101393.69
2023-05-05T12:14:52.479Z,101392.41
2023-05-05T12:17:23.192Z,101394.94
2023-05-05T12:19:54.490Z,101384.88
2023-05-05T12:22:26.265Z,101383.31
2023-05-05T12:24:55.089Z,101386.91
2023-05-05T12:27:22.006Z,101377.41
2023-05-05T12:29:48.694Z,101381.91
2023-05-05T12:32:25.843Z,101386.03
2023-05-05T12:34:57.583Z,101383.53
2023-05-05T12:37:26.184Z,101379.53
2023-05-05T12:39:55.094Z,101378.44
2023-05-05T12:42:22.453Z,101381.97
2023-05-05T12:44:49.222Z,101380.25
2023-05-05T12:47:30.380Z,101386.69
2023-05-05T12:49:56.884Z,101393.16
2023-05-05T12:52:23.540Z,101387.47
2023-05-05T12:54:54.835Z,101386.84
2023-05-05T12:57:22.325Z,101370.41
2023-05-05T12:59:49.393Z,101377.25
2023-05-05T13:02:16.420Z,101375.63
2023-05-05T13:04:50.294Z,101377.94
2023-05-05T13:07:17.899Z,101386.47
2023-05-05T13:09:44.679Z,101397.03
2023-05-05T13:12:14.316Z,101389.28
2023-05-05T13:14:41.541Z,101388.47
2023-05-05T13:17:08.406Z,101384.63
2023-05-05T13:19:42.110Z,101386.00
2023-05-05T13:22:12.828Z,101386.91
2023-05-05T13:24:51.029Z,101388.06
2023-05-05T13:27:19.917Z,101389.78
2023-05-05T13:29:46.686Z,101389.91
2023-05-05T13:32:13.741Z,101391.28
2023-05-05T13:34:40.240Z,101394.63
2023-05-05T13:37:06.776Z,101393.94
2023-05-05T13:39:33.306Z,101395.94
2023-05-05T13:42:00.436Z,101386.09
2023-05-05T13:44:26.860Z,101388.84
2023-05-05T13:46:53.695Z,101386.22
2023-05-05T13:49:20.306Z,101395.81
2023-05-05T13:51:47.128Z,101390.34
2023-05-05T13:54:14.077Z,101385.03
2023-05-05T13:56:40.759Z,101382.19
2023-05-05T13:59:07.242Z,101383.97
2023-05-05T14:01:33.779Z,101380.88
2023-05-05T14:04:02.724Z,101389.13
2023-05-05T14:06:31.126Z,101387.03
2023-05-05T14:08:57.594Z,101388.66
2023-05-05T14:11:24.313Z,101385.00
2023-05-05T14:13:51.945Z,101382.75
2023-05-05T14:16:18.564Z,101382.69
2023-05-05T14:18:45.655Z,101375.72
2023-05-05T14:21:12.192Z,101370.22
2023-05-05T14:23:38.658Z,101363.75
2023-05-05T14:26:05.298Z,101357.72
2023-05-05T14:28:31.817Z,101350.13
2023-05-05T14:30:58.319Z,101341.97
2023-05-05T14:33:24.822Z,101334.94
2023-05-05T14:35:51.495Z,101337.25
2023-05-05T14:38:18.160Z,101330.31
2023-05-05T14:40:44.707Z,101332.59
2023-05-05T14:43:11.199Z,101342.91
2023-05-05T14:45:37.744Z,101334.72
2023-05-05T14:48:04.375Z,101330.13
2023-05-05T14:50:30.950Z,101328.25
2023-05-05T14:52:57.420Z,101320.44
2023-05-05T14:55:25.024Z,101314.53
2023-05-05T14:57:51.941Z,101315.53
2023-05-05T15:00:18.735Z,101324.66
2023-05-05T15:02:45.481Z,101318.16
2023-05-05T15:05:12.212Z,101320.22
2023-05-05T15:07:39.997Z,101331.78
2023-05-05T15:10:07.604Z,101320.38
2023-05-05T15:12:34.276Z,101319.22
2023-05-05T15:15:00.933Z,101321.72
2023-05-05T15:17:27.344Z,101315.94
2023-05-05T15:19:53.842Z,101320.72
2023-05-05T15:22:20.327Z,101315.19
2023-05-05T15:24:46.724Z,101322.16
2023-05-05T15:27:13.479Z,101320.97
2023-05-05T15:29:39.904Z,101310.56
2023-05-05T15:32:06.420Z,101314.63
2023-05-05T15:34:32.956Z,101311.78
2023-05-05T15:36:59.419Z,101305.28
2023-05-05T15:39:25.860Z,101303.25
2023-05-05T15:41:52.379Z,101298.44
2023-05-05T15:44:18.789Z,101291.75
2023-05-05T15:46:45.287Z,101293.38
2023-05-05T15:49:11.810Z,101294.94
2023-05-05T15:51:38.351Z,101304.88
2023-05-05T15:54:05.531Z,101306.63
2023-05-05T15:56:32.352Z,101296.03
2023-05-05T15:58:58.766Z,101290.50
2023-05-05T16:01:25.294Z,101284.88
2023-05-05T16:03:51.818Z,101278.88
2023-05-05T16:06:18.322Z,101279.91
2023-05-05T16:08:47.617Z,101276.47
2023-05-05T16:11:14.081Z,101281.34
2023-05-05T16:13:40.569Z,101288.56
2023-05-05T16:16:07.133Z,101294.88
2023-05-05T16:18:33.705Z,101297.72
2023-05-05T16:21:00.749Z,101291.19
2023-05-05T16:23:27.300Z,101273.06
2023-05-05T16:25:53.799Z,101279.16
2023-05-05T16:28:20.227Z,101275.06
2023-05-05T16:30:46.773Z,101271.22
2023-05-05T16:33:13.190Z,101274.88
2023-05-05T16:35:39.621Z,101267.44
2023-05-05T16:38:06.124Z,101278.84
2023-05-05T16:40:32.573Z,101265.75
2023-05-05T16:42:59.052Z,101270.06
2023-05-05T16:45:25.462Z,101270.44
2023-05-05T16:47:51.928Z,101263.56
2023-05-05T16:50:18.447Z,101266.66
2023-05-05T16:52:44.884Z,101269.69
2023-05-05T16:55:11.593Z,101268.84
2023-05-05T16:57:38.378Z,101266.56
2023-05-05T17:00:09.470Z,101273.16
2023-05-05T17:02:36.295Z,101266.59
2023-05-05T17:05:02.877Z,101263.22
2023-05-05T17:07:29.401Z,101265.84
2023-05-05T17:09:55.902Z,101264.88
2023-05-05T17:12:22.417Z,101270.06
2023-05-05T17:14:48.905Z,101272.41
2023-05-05T17:17:15.497Z,101279.84
2023-05-05T17:19:42.717Z,101276.09
2023-05-05T17:22:09.156Z,101268.00
2023-05-05T17:24:35.637Z,101275.78
2023-05-05T17:27:02.095Z,101269.25
2023-05-05T17:29:28.547Z,101263.59
2023-05-05T17:31:55.062Z,101265.56
2023-05-05T17:34:22.027Z,101267.63
2023-05-05T17:36:48.516Z,101270.47
2023-05-05T17:39:14.997Z,101265.22
2023-05-05T17:41:42.379Z,101264.06
2023-05-05T17:44:08.822Z,101268.09
2023-05-05T17:46:35.423Z,101258.06
2023-05-05T17:49:02.761Z,101261.44
2023-05-05T17:51:29.236Z,101267.09
2023-05-05T17:53:55.611Z,101267.75
2023-05-05T17:56:22.187Z,101260.78
2023-05-05T17:58:48.921Z,101265.63
2023-05-05T18:01:26.049Z,101273.19
2023-05-05T18:03:52.867Z,101281.81
2023-05-05T18:06:19.359Z,101273.72
2023-05-05T18:08:45.877Z,101269.22
2023-05-05T18:11:12.374Z,101280.69
2023-05-05T18:13:39.452Z,101291.09
2023-05-05T18:16:06.521Z,101296.44
2023-05-05T18:18:33.112Z,101295.78
2023-05-05T18:20:59.683Z,101304.59
2023-05-05T18:23:26.270Z,101301.97
2023-05-05T18:25:52.651Z,101300.84
2023-05-05T18:28:19.137Z,101305.50
2023-05-05T18:30:45.626Z,101309.13
2023-05-05T18:33:12.083Z,101312.41
2023-05-05T18:35:38.568Z,101314.63
2023-05-05T18:38:05.393Z,101319.47
2023-05-05T18:40:31.823Z,101324.41
2023-05-05T18:42:58.334Z,101325.78
2023-05-05T18:45:24.882Z,101322.19
2023-05-05T18:47:51.391Z,101323.06
2023-05-05T18:50:18.001Z,101322.13
2023-05-05T18:52:44.409Z,101319.41
2023-05-05T18:55:11.293Z,101310.94
2023-05-05T18:57:38.049Z,101312.69
2023-05-05T19:00:04.909Z,101326.31
2023-05-05T19:02:31.474Z,101336.72
2023-05-05T19:04:58.007Z,101336.44
2023-05-05T19:07:34.382Z,101340.19
2023-05-05T19:10:03.651Z,101346.16
2023-05-05T19:12:30.215Z,101349.56
2023-05-05T19:14:56.823Z,101351.94
2023-05-05T19:17:23.288Z,101355.16
2023-05-05T19:19:50.016Z,101361.13
2023-05-05T19:22:17.626Z,101351.94
2023-05-05T19:24:44.068Z,101359.28
2023-05-05T19:27:15.433Z,101356.38
2023-05-05T19:29:43.040Z,101357.38
2023-05-05T19:32:09.575Z,101365.91
2023-05-05T19:34:36.416Z,101360.28
2023-05-05T19:37:02.870Z,101369.44
2023-05-05T19:39:29.349Z,101367.81
2023-05-05T19:41:55.814Z,101361.34
2023-05-05T19:44:22.769Z,101365.78
2023-05-05T19:46:49.257Z,101370.00
2023-05-05T19:49:16.436Z,101368.50
2023-05-05T19:51:43.734Z,101371.41
2023-05-05T19:54:10.286Z,101358.34
2023-05-05T19:56:36.791Z,101365.13
2023-05-05T19:59:05.297Z,101362.22
2023-05-05T20:01:33.052Z,101367.66
2023-05-05T20:04:00.054Z,101368.88
2023-05-05T20:06:26.977Z,101371.22
2023-05-05T20:08:54.744Z,101379.03
2023-05-05T20:11:21.926Z,101380.94
2023-05-05T20:13:49.928Z,101384.50
2023-05-05T20:16:16.669Z,101383.97
2023-05-05T20:18:43.517Z,101384.13
2023-05-05T20:21:10.050Z,101389.56
2023-05-05T20:23:37.089Z,101381.94
2023-05-05T20:26:03.742Z,101388.03
2023-05-05T20:28:31.686Z,101395.16
2023-05-05T20:30:58.284Z,101394.69
2023-05-05T20:33:24.834Z,101392.13
2023-05-05T20:35:51.294Z,101396.88
2023-05-05T20:38:17.972Z,101396.88
2023-05-05T20:40:44.461Z,101388.88
2023-05-05T20:43:10.962Z,101390.78
2023-05-05T20:45:37.480Z,101386.03
2023-05-05T20:48:05.332Z,101386.69
2023-05-05T20:50:32.137Z,101387.34
2023-05-05T20:52:58.775Z,101380.75
2023-05-05T20:55:25.633Z,101379.03
2023-05-05T20:57:52.101Z,101377.34
2023-05-05T21:00:23.615Z,101371.75
2023-05-05T21:02:50.334Z,101373.97
2023-05-05T21:05:16.926Z,101367.69
2023-05-05T21:07:44.547Z,101364.63
2023-05-05T21:10:11.271Z,101362.44
2023-05-05T21:12:37.974Z,101374.81
2023-05-05T21:15:04.933Z,101377.69
2023-05-05T21:17:31.384Z,101369.91
2023-05-05T21:19:57.925Z,101372.94
2023-05-05T21:22:24.419Z,101371.41
2023-05-05T21:24:51.208Z,101366.97
2023-05-05T21:27:17.778Z,101371.56
2023-05-05T21:29:44.176Z,101370.38
2023-05-05T21:32:11.891Z,101373.28
2023-05-05T21:34:39.204Z,101369.03
2023-05-05T21:37:06.490Z,101376.81
2023-05-05T21:39:33.619Z,101376.16
2023-05-05T21:42:00.886Z,101366.81
2023-05-05T21:44:28.296Z,101366.81
2023-05-05T21:46:55.350Z,101362.25
2023-05-05T21:49:22.112Z,101364.44
2023-05-05T21:51:48.599Z,101367.31
2023-05-05T21:54:15.254Z,101367.66
2023-05-05T21:56:41.752Z,101362.94
2023-05-05T21:59:08.251Z,101364.91
2023-05-05T22:01:35.309Z,101370.19
2023-05-05T22:04:01.890Z,101368.50
2023-05-05T22:06:28.388Z,101366.44
2023-05-05T22:08:56.596Z,101366.50
2023-05-05T22:11:23.152Z,101362.06
2023-05-05T22:13:49.779Z,101364.97
2023-05-05T22:16:19.127Z,101374.44
2023-05-05T22:18:46.063Z,101364.19
2023-05-05T22:21:12.614Z,101364.22
2023-05-05T22:23:41.435Z,101376.28
2023-05-05T22:26:08.705Z,101379.97
2023-05-05T22:28:35.262Z,101372.66
2023-05-05T22:31:01.978Z,101376.06
2023-05-05T22:33:28.514Z,101372.34
2023-05-05T22:35:54.997Z,101371.84
2023-05-05T22:38:21.483Z,101374.19
2023-05-05T22:40:47.958Z,101362.81
2023-05-05T22:43:14.467Z,101364.53
2023-05-05T22:45:41.457Z,101371.50
2023-05-05T22:48:07.912Z,101368.56
2023-05-05T22:50:35.314Z,101373.72
2023-05-05T22:53:01.758Z,101363.19
2023-05-05T22:55:28.326Z,101366.44
2023-05-05T22:57:54.806Z,101365.06
2023-05-05T23:00:21.245Z,101363.19
2023-05-05T23:02:47.808Z,101361.66
2023-05-05T23:05:14.295Z,101367.41
2023-05-05T23:07:40.814Z,101366.38
2023-05-05T23:10:07.738Z,101367.94
2023-05-05T23:12:34.272Z,101367.91
2023-05-05T23:15:00.903Z,101364.34
2023-05-05T23:17:27.344Z,101365.22
2023-05-05T23:19:53.910Z,101368.03
2023-05-05T23:22:20.388Z,101377.75
2023-05-05T23:24:46.791Z,101375.06
2023-05-05T23:27:13.347Z,101373.19
2023-05-05T23:29:39.806Z,101359.13
2023-05-05T23:32:06.486Z,101373.66
2023-05-05T23:34:32.974Z,101366.88
2023-05-05T23:36:59.414Z,101375.31
2023-05-05T23:39:25.822Z,101380.56
2023-05-05T23:41:52.431Z,101382.94
2023-05-05T23:44:18.845Z,101386.00
2023-05-05T23:46:45.487Z,101374.84
2023-05-05T23:49:11.924Z,101382.06
2023-05-05T23:51:38.351Z,101381.28
2023-05-05T23:54:04.836Z,101384.13
2023-05-05T23:56:31.283Z,101379.59
2023-05-05T23:58:57.802Z,101383.84
